createdAt,value
2018-12-31T00:00:41.039Z,3.50
2018-12-31T00:03:09.646Z,3.40
2018-12-31T00:05:39.638Z,3.50
2018-12-31T00:08:10.790Z,3.40
2018-12-31T00:10:45.965Z,3.50
2018-12-31T00:13:16.033Z,3.50
2018-12-31T00:15:55.052Z,3.50
2018-12-31T00:18:33.246Z,3.40
2018-12-31T00:21:03.323Z,3.50
2018-12-31T00:23:40.502Z,3.40
2018-12-31T00:26:11.613Z,3.40
2018-12-31T00:28:43.938Z,3.40
2018-12-31T00:31:15.070Z,3.40
2018-12-31T00:33:43.510Z,3.50
2018-12-31T00:36:11.958Z,3.50
2018-12-31T00:38:40.650Z,3.50
2018-12-31T00:41:18.058Z,3.50
2018-12-31T00:43:50.912Z,3.50
2018-12-31T00:46:21.621Z,3.50
2018-12-31T00:48:50.085Z,3.50
2018-12-31T00:51:18.523Z,3.50
2018-12-31T00:53:50.911Z,3.50
2018-12-31T00:56:19.315Z,3.50
2018-12-31T00:58:49.379Z,3.50
2018-12-31T01:01:17.786Z,3.50
2018-12-31T01:03:46.231Z,3.50
2018-12-31T01:06:29.349Z,3.50
2018-12-31T01:09:00.601Z,3.50
2018-12-31T01:11:35.017Z,3.40
2018-12-31T01:14:03.458Z,3.50
2018-12-31T01:16:33.513Z,3.40
2018-12-31T01:19:04.909Z,3.50
2018-12-31T01:21:36.107Z,3.50
2018-12-31T01:24:04.545Z,3.40
2018-12-31T01:26:32.987Z,3.50
2018-12-31T01:29:01.434Z,3.50
2018-12-31T01:31:33.830Z,3.50
2018-12-31T01:34:02.474Z,3.50
2018-12-31T01:36:32.682Z,3.50
2018-12-31T01:39:01.093Z,3.50
2018-12-31T01:41:31.165Z,3.50
2018-12-31T01:44:02.597Z,3.50
2018-12-31T01:46:35.777Z,3.50
2018-12-31T01:49:07.391Z,3.50
2018-12-31T01:51:36.541Z,3.50
2018-12-31T01:54:06.598Z,3.50
2018-12-31T01:56:37.721Z,3.50
2018-12-31T01:59:08.838Z,3.50
2018-12-31T02:01:41.244Z,3.50
2018-12-31T02:04:22.018Z,3.50
2018-12-31T02:06:53.773Z,3.50
2018-12-31T02:09:28.598Z,3.50
2018-12-31T02:11:57.014Z,3.50
2018-12-31T02:14:27.090Z,3.50
2018-12-31T02:16:58.642Z,3.50
2018-12-31T02:19:39.026Z,3.50
2018-12-31T02:22:14.023Z,3.50
2018-12-31T02:24:46.743Z,3.50
2018-12-31T02:27:15.161Z,3.50
2018-12-31T02:29:52.371Z,3.50
2018-12-31T02:32:23.638Z,3.50
2018-12-31T02:34:58.090Z,3.50
2018-12-31T02:37:32.418Z,3.50
2018-12-31T02:40:06.703Z,3.50
2018-12-31T02:42:35.155Z,3.50
2018-12-31T02:45:13.663Z,3.50
2018-12-31T02:47:47.887Z,3.50
2018-12-31T02:50:19.519Z,3.50
2018-12-31T02:52:50.689Z,3.50
2018-12-31T02:55:24.809Z,3.50
2018-12-31T02:57:57.834Z,3.50
2018-12-31T03:00:32.181Z,3.50
2018-12-31T03:03:03.299Z,3.50
2018-12-31T03:05:34.371Z,3.50
2018-12-31T03:08:08.641Z,3.50
2018-12-31T03:10:39.826Z,3.50
2018-12-31T03:13:09.881Z,3.50
2018-12-31T03:15:41.041Z,3.50
2018-12-31T03:18:22.915Z,3.50
2018-12-31T03:20:53.264Z,3.50
2018-12-31T03:23:25.809Z,3.50
2018-12-31T03:25:56.920Z,3.50
2018-12-31T03:28:29.629Z,3.50
2018-12-31T03:31:00.842Z,3.50
2018-12-31T03:33:32.166Z,3.50
2018-12-31T03:36:00.583Z,3.50
2018-12-31T03:38:31.937Z,3.50
2018-12-31T03:41:03.352Z,3.50
2018-12-31T03:43:31.801Z,3.50
2018-12-31T03:46:00.219Z,3.50
2018-12-31T03:48:31.324Z,3.50
2018-12-31T03:50:59.766Z,3.50
2018-12-31T03:53:32.537Z,3.60
2018-12-31T03:56:03.653Z,3.60
2018-12-31T03:58:32.057Z,3.50
2018-12-31T04:01:06.232Z,3.50
2018-12-31T04:03:36.579Z,3.50
2018-12-31T04:06:16.801Z,3.50
2018-12-31T04:08:46.897Z,3.50
2018-12-31T04:11:18.010Z,3.50
2018-12-31T04:13:50.766Z,3.50
2018-12-31T04:16:21.979Z,3.50
2018-12-31T04:18:58.168Z,3.50
2018-12-31T04:21:26.590Z,3.50
2018-12-31T04:23:55.011Z,3.50
2018-12-31T04:26:26.522Z,3.60
2018-12-31T04:29:00.554Z,3.60
2018-12-31T04:31:36.615Z,3.60
2018-12-31T04:34:08.206Z,3.60
2018-12-31T04:36:36.618Z,3.60
2018-12-31T04:39:06.901Z,3.60
2018-12-31T04:41:44.286Z,3.60
2018-12-31T04:44:12.734Z,3.60
2018-12-31T04:46:41.146Z,3.60
2018-12-31T04:49:15.502Z,3.50
2018-12-31T04:51:47.171Z,3.60
2018-12-31T04:54:18.526Z,3.60
2018-12-31T04:56:46.958Z,3.60
2018-12-31T04:59:20.576Z,3.60
2018-12-31T05:01:52.112Z,3.60
2018-12-31T05:04:32.476Z,3.50
2018-12-31T05:07:02.502Z,3.50
2018-12-31T05:09:33.533Z,3.50
2018-12-31T05:12:01.954Z,3.50
2018-12-31T05:14:35.773Z,3.50
2018-12-31T05:17:09.609Z,3.50
2018-12-31T05:19:42.359Z,3.50
2018-12-31T05:22:16.506Z,3.50
2018-12-31T05:24:47.749Z,3.50
2018-12-31T05:27:16.157Z,3.50
2018-12-31T05:29:50.409Z,3.50
2018-12-31T05:32:20.503Z,3.50
2018-12-31T05:34:48.918Z,3.50
2018-12-31T05:40:00.729Z,3.60
2018-12-31T05:42:29.210Z,3.50
2018-12-31T05:45:06.461Z,3.50
2018-12-31T05:47:36.507Z,3.50
2018-12-31T05:50:06.553Z,3.50
2018-12-31T05:52:40.511Z,3.50
2018-12-31T05:55:08.944Z,3.50
2018-12-31T05:57:41.733Z,3.60
2018-12-31T06:00:14.986Z,3.60
2018-12-31T06:02:46.322Z,3.60
2018-12-31T06:05:16.413Z,3.60
2018-12-31T06:07:45.171Z,3.60
2018-12-31T06:10:13.581Z,3.60
2018-12-31T06:12:42.038Z,3.60
2018-12-31T06:15:13.420Z,3.60
2018-12-31T06:17:43.474Z,3.60
2018-12-31T06:20:18.670Z,3.60
2018-12-31T06:22:52.401Z,3.60
2018-12-31T06:25:26.552Z,3.60
2018-12-31T06:28:04.112Z,3.60
2018-12-31T06:30:35.713Z,3.60
2018-12-31T06:33:05.753Z,3.60
2018-12-31T06:35:37.381Z,3.60
2018-12-31T06:38:08.729Z,3.60
2018-12-31T06:40:39.424Z,3.60
2018-12-31T06:43:10.480Z,3.60
2018-12-31T06:45:41.633Z,3.60
2018-12-31T06:48:21.336Z,3.60
2018-12-31T06:50:51.389Z,3.60
2018-12-31T06:53:19.829Z,3.60
2018-12-31T06:55:48.288Z,3.60
2018-12-31T06:58:22.429Z,3.60
2018-12-31T07:00:56.469Z,3.60
2018-12-31T07:03:24.888Z,3.60
2018-12-31T07:05:56.013Z,3.60
2018-12-31T07:08:25.652Z,3.60
2018-12-31T07:10:59.837Z,3.60
2018-12-31T07:13:29.925Z,3.60
2018-12-31T07:16:01.218Z,3.60
2018-12-31T07:18:41.522Z,3.60
2018-12-31T07:21:12.770Z,3.60
2018-12-31T07:23:41.186Z,3.60
2018-12-31T07:26:09.589Z,3.60
2018-12-31T07:28:47.154Z,3.60
2018-12-31T07:31:21.586Z,3.60
2018-12-31T07:33:56.001Z,3.60
2018-12-31T07:36:24.413Z,3.60
2018-12-31T07:38:58.818Z,3.60
2018-12-31T07:41:27.254Z,3.60
2018-12-31T07:44:01.723Z,3.60
2018-12-31T07:46:32.946Z,3.70
2018-12-31T07:49:10.181Z,3.70
2018-12-31T07:51:40.570Z,3.70
2018-12-31T07:54:09.030Z,3.70
2018-12-31T07:56:39.073Z,3.70
2018-12-31T07:59:11.805Z,3.70
2018-12-31T08:01:40.260Z,3.70
2018-12-31T08:04:14.078Z,3.70
2018-12-31T08:06:45.014Z,3.70
2018-12-31T08:09:17.678Z,3.70
2018-12-31T08:11:47.150Z,3.70
2018-12-31T08:14:15.614Z,3.70
2018-12-31T08:16:44.021Z,3.70
2018-12-31T08:19:18.610Z,3.70
2018-12-31T08:21:48.661Z,3.70
2018-12-31T08:24:17.094Z,3.70
2018-12-31T08:26:48.380Z,3.70
2018-12-31T08:29:16.785Z,3.80
2018-12-31T08:31:45.270Z,3.80
2018-12-31T08:34:15.325Z,3.80
2018-12-31T08:36:43.739Z,3.90
2018-12-31T08:39:18.258Z,3.90
2018-12-31T08:41:50.978Z,3.90
2018-12-31T08:44:23.752Z,4.00
2018-12-31T08:46:53.803Z,4.00
2018-12-31T08:49:32.176Z,4.00
2018-12-31T08:52:03.797Z,4.00
2018-12-31T08:54:39.253Z,4.10
2018-12-31T08:57:11.985Z,4.10
2018-12-31T08:59:45.992Z,4.20
2018-12-31T09:02:26.178Z,4.20
2018-12-31T09:04:56.252Z,4.30
2018-12-31T09:07:33.516Z,4.40
2018-12-31T09:10:03.589Z,4.40
2018-12-31T09:12:33.643Z,4.50
2018-12-31T09:15:04.015Z,4.60
2018-12-31T09:17:35.666Z,4.60
2018-12-31T09:20:05.684Z,4.70
2018-12-31T09:22:35.738Z,4.70
2018-12-31T09:25:13.058Z,4.70
2018-12-31T09:27:41.470Z,4.70
2018-12-31T09:30:13.074Z,4.70
2018-12-31T09:32:50.322Z,4.70
2018-12-31T09:35:19.426Z,4.70
2018-12-31T09:37:50.657Z,4.70
2018-12-31T09:40:21.754Z,4.70
2018-12-31T09:42:50.242Z,4.70
2018-12-31T09:45:24.484Z,4.70
2018-12-31T09:47:52.905Z,4.80
2018-12-31T09:50:24.229Z,4.80
2018-12-31T09:52:55.306Z,4.70
2018-12-31T09:55:23.721Z,4.70
2018-12-31T09:57:56.800Z,4.70
2018-12-31T10:00:25.221Z,4.80
2018-12-31T10:02:55.269Z,4.70
2018-12-31T10:05:26.381Z,4.70
2018-12-31T10:07:59.417Z,4.70
2018-12-31T10:10:27.836Z,4.70
2018-12-31T10:13:02.353Z,4.80
2018-12-31T10:15:30.762Z,4.80
2018-12-31T10:18:00.852Z,4.70
2018-12-31T10:20:32.001Z,4.80
2018-12-31T10:23:00.414Z,4.80
2018-12-31T10:25:32.078Z,4.80
2018-12-31T10:28:00.489Z,4.80
2018-12-31T10:30:38.754Z,4.80
2018-12-31T10:33:07.166Z,4.80
2018-12-31T10:35:41.369Z,4.80
2018-12-31T10:38:12.636Z,4.80
2018-12-31T10:40:41.041Z,4.80
2018-12-31T10:43:14.882Z,4.80
2018-12-31T10:45:49.251Z,5.00
2018-12-31T10:48:16.967Z,5.00
2018-12-31T10:50:49.844Z,5.10
2018-12-31T10:53:18.269Z,5.10
2018-12-31T10:55:46.681Z,5.10
2018-12-31T10:58:20.865Z,5.10
2018-12-31T11:00:50.975Z,5.10
2018-12-31T11:03:25.117Z,5.10
2018-12-31T11:05:53.569Z,5.10
2018-12-31T11:08:27.719Z,5.10
2018-12-31T11:10:58.869Z,5.10
2018-12-31T11:13:27.290Z,5.20
2018-12-31T11:15:55.705Z,5.20
2018-12-31T11:18:24.158Z,5.20
2018-12-31T11:20:52.557Z,5.20
2018-12-31T11:23:26.693Z,5.10
2018-12-31T11:25:56.767Z,5.10
2018-12-31T11:28:27.845Z,5.10
2018-12-31T11:30:56.289Z,5.00
2018-12-31T11:33:34.421Z,5.00
2018-12-31T11:36:02.829Z,4.90
2018-12-31T11:38:37.103Z,4.90
2018-12-31T11:41:08.025Z,4.90
2018-12-31T11:43:38.069Z,4.90
2018-12-31T11:46:11.770Z,4.80
2018-12-31T11:48:42.001Z,4.80
2018-12-31T11:51:10.398Z,4.80
2018-12-31T11:53:41.761Z,4.80
2018-12-31T11:56:10.464Z,4.80
2018-12-31T11:58:44.829Z,4.80
2018-12-31T12:01:18.113Z,4.80
2018-12-31T12:03:49.252Z,4.80
2018-12-31T12:06:19.314Z,4.80
2018-12-31T12:08:56.940Z,4.80
2018-12-31T12:11:25.361Z,4.80
2018-12-31T12:14:02.337Z,4.80
2018-12-31T12:16:36.881Z,4.80
2018-12-31T12:19:08.497Z,4.90
2018-12-31T12:21:42.796Z,4.90
2018-12-31T12:24:11.238Z,4.90
2018-12-31T12:26:39.650Z,4.90
2018-12-31T12:29:11.414Z,5.00
2018-12-31T12:31:39.861Z,5.00
2018-12-31T12:34:16.860Z,5.00
2018-12-31T12:36:45.533Z,5.00
2018-12-31T12:39:13.988Z,5.00
2018-12-31T12:41:42.878Z,5.00
2018-12-31T12:44:11.605Z,5.00
2018-12-31T12:46:42.890Z,5.00
2018-12-31T12:49:14.265Z,5.00
2018-12-31T12:51:42.678Z,5.00
2018-12-31T12:54:11.114Z,5.00
2018-12-31T12:56:45.205Z,5.00
2018-12-31T12:59:13.641Z,5.00
2018-12-31T13:01:50.662Z,5.00
2018-12-31T13:04:19.118Z,5.00
2018-12-31T13:06:47.519Z,5.00
2018-12-31T13:09:18.868Z,5.00
2018-12-31T13:11:47.312Z,5.00
2018-12-31T13:14:18.955Z,5.00
2018-12-31T13:16:49.894Z,5.00
2018-12-31T13:19:19.354Z,5.10
2018-12-31T13:21:50.741Z,5.00
2018-12-31T13:24:19.159Z,5.00
2018-12-31T13:26:50.694Z,5.10
2018-12-31T13:29:22.675Z,5.10
2018-12-31T13:31:54.162Z,5.10
2018-12-31T13:34:28.581Z,5.10
2018-12-31T13:36:58.950Z,5.10
2018-12-31T13:39:27.362Z,5.20
2018-12-31T13:41:56.009Z,5.20
2018-12-31T13:44:28.555Z,5.20
2018-12-31T13:47:04.559Z,5.20
2018-12-31T13:49:32.809Z,5.20
2018-12-31T13:52:01.229Z,5.20
2018-12-31T13:54:31.361Z,5.20
2018-12-31T13:57:02.921Z,5.20
2018-12-31T13:59:34.602Z,5.20
2018-12-31T14:02:04.541Z,5.20
2018-12-31T14:04:34.337Z,5.20
2018-12-31T14:07:02.782Z,5.10
2018-12-31T14:09:31.200Z,5.10
2018-12-31T14:12:03.285Z,5.10
2018-12-31T14:14:34.364Z,5.10
2018-12-31T14:17:02.772Z,5.10
2018-12-31T14:19:33.914Z,5.00
2018-12-31T14:22:07.098Z,5.00
2018-12-31T14:24:35.542Z,5.00
2018-12-31T14:27:03.946Z,5.00
2018-12-31T14:29:32.381Z,5.00
2018-12-31T14:32:03.661Z,5.00
2018-12-31T14:34:32.117Z,5.00
2018-12-31T14:37:02.285Z,5.00
2018-12-31T14:39:37.640Z,5.00
2018-12-31T14:42:06.046Z,4.90
2018-12-31T14:44:34.497Z,5.00
2018-12-31T14:47:06.117Z,5.00
2018-12-31T14:49:34.537Z,4.90
2018-12-31T14:52:04.633Z,4.90
2018-12-31T14:54:33.046Z,4.90
2018-12-31T14:57:07.106Z,4.90
2018-12-31T14:59:37.513Z,4.90
2018-12-31T15:02:07.800Z,4.90
2018-12-31T15:04:38.917Z,4.90
2018-12-31T15:07:10.442Z,4.90
2018-12-31T15:09:40.538Z,4.90
2018-12-31T15:12:16.602Z,4.80
2018-12-31T15:14:51.025Z,4.80
2018-12-31T15:17:23.058Z,4.80
2018-12-31T15:19:54.054Z,4.80
2018-12-31T15:22:29.284Z,4.70
2018-12-31T15:24:58.461Z,4.70
2018-12-31T15:27:29.901Z,4.70
2018-12-31T15:30:07.111Z,4.70
2018-12-31T15:32:40.923Z,4.70
2018-12-31T15:35:09.326Z,4.70
2018-12-31T15:37:43.374Z,4.60
2018-12-31T15:40:12.446Z,4.70
2018-12-31T15:42:46.822Z,4.60
2018-12-31T15:45:15.265Z,4.60
2018-12-31T15:47:46.259Z,4.70
2018-12-31T15:50:14.661Z,4.70
2018-12-31T15:52:49.011Z,4.60
2018-12-31T15:55:17.414Z,4.60
2018-12-31T15:57:45.858Z,4.60
2018-12-31T16:00:17.637Z,4.60
2018-12-31T16:02:48.863Z,4.60
2018-12-31T16:05:23.313Z,4.60
2018-12-31T16:07:57.506Z,4.60
2018-12-31T16:10:31.765Z,4.60
2018-12-31T16:13:03.610Z,4.60
2018-12-31T16:15:32.016Z,4.60
2018-12-31T16:18:05.822Z,4.60
2018-12-31T16:20:33.509Z,4.60
2018-12-31T16:23:04.898Z,4.60
2018-12-31T16:25:33.343Z,4.70
2018-12-31T16:28:07.417Z,4.60
2018-12-31T16:30:35.995Z,4.70
2018-12-31T16:33:15.141Z,4.70
2018-12-31T16:35:43.580Z,4.70
2018-12-31T16:38:17.834Z,4.70
2018-12-31T16:40:52.453Z,4.70
2018-12-31T16:43:24.112Z,4.70
2018-12-31T16:45:56.025Z,4.70
2018-12-31T16:48:24.434Z,4.70
2018-12-31T16:51:01.754Z,4.70
2018-12-31T16:53:33.240Z,4.70
2018-12-31T16:56:04.337Z,4.70
2018-12-31T16:58:32.762Z,4.70
2018-12-31T17:01:07.322Z,4.70
2018-12-31T17:03:38.621Z,4.70
2018-12-31T17:06:26.611Z,4.60
2018-12-31T17:08:58.075Z,4.60
2018-12-31T17:11:29.449Z,4.60
2018-12-31T17:13:57.861Z,4.70
2018-12-31T17:16:31.801Z,4.60
2018-12-31T17:19:00.616Z,4.60
2018-12-31T17:21:31.705Z,4.70
2018-12-31T17:24:03.269Z,4.70
2018-12-31T17:26:32.664Z,4.60
2018-12-31T17:29:06.066Z,4.70
2018-12-31T17:31:34.479Z,4.70
2018-12-31T17:34:11.837Z,4.70
2018-12-31T17:36:42.918Z,4.70
2018-12-31T17:39:15.714Z,4.70
2018-12-31T17:41:44.536Z,4.70
2018-12-31T17:44:16.000Z,4.70
2018-12-31T17:46:44.444Z,4.70
2018-12-31T17:49:12.865Z,4.70
2018-12-31T17:51:41.268Z,4.70
2018-12-31T17:54:10.300Z,4.70
2018-12-31T17:56:38.716Z,4.70
2018-12-31T17:59:08.846Z,4.70
2018-12-31T18:01:37.288Z,4.70
2018-12-31T18:04:11.349Z,4.70
2018-12-31T18:06:39.802Z,4.70
2018-12-31T18:09:09.870Z,4.70
2018-12-31T18:11:38.671Z,4.70
2018-12-31T18:14:07.129Z,4.70
2018-12-31T18:16:35.545Z,4.80
2018-12-31T18:19:07.794Z,4.80
2018-12-31T18:21:39.739Z,4.80
2018-12-31T18:24:08.162Z,4.80
2018-12-31T18:26:39.373Z,4.80
2018-12-31T18:29:19.681Z,4.70
2018-12-31T18:31:52.017Z,4.70
2018-12-31T18:34:20.433Z,4.70
2018-12-31T18:36:50.521Z,4.70
2018-12-31T18:39:24.969Z,4.70
2018-12-31T18:41:53.414Z,4.70
2018-12-31T18:44:24.501Z,4.80
2018-12-31T18:46:55.380Z,4.80
2018-12-31T18:49:23.793Z,4.80
2018-12-31T18:51:52.238Z,4.80
2018-12-31T18:54:32.895Z,4.80
2018-12-31T18:57:01.337Z,4.80
2018-12-31T18:59:32.299Z,4.80
2018-12-31T19:02:08.621Z,4.80
2018-12-31T19:04:39.917Z,4.80
2018-12-31T19:07:11.327Z,4.80
2018-12-31T19:09:40.797Z,4.80
2018-12-31T19:12:12.230Z,4.80
2018-12-31T19:14:40.647Z,4.90
2018-12-31T19:17:10.728Z,4.90
2018-12-31T19:19:39.153Z,4.90
2018-12-31T19:22:11.576Z,4.90
2018-12-31T19:24:39.957Z,4.90
2018-12-31T19:27:14.265Z,4.90
2018-12-31T19:29:43.702Z,4.90
2018-12-31T19:32:16.717Z,4.90
2018-12-31T19:34:45.133Z,4.90
2018-12-31T19:37:15.204Z,4.90
2018-12-31T19:39:44.147Z,4.90
2018-12-31T19:42:15.874Z,4.90
2018-12-31T19:44:48.874Z,4.90
2018-12-31T19:47:17.281Z,4.90
2018-12-31T19:49:47.378Z,4.90
2018-12-31T19:52:17.430Z,4.90
2018-12-31T19:54:45.850Z,4.90
2018-12-31T19:57:16.925Z,4.90
2018-12-31T19:59:45.369Z,4.90
2018-12-31T20:02:22.932Z,4.90
2018-12-31T20:04:51.376Z,5.00
2018-12-31T20:07:19.817Z,4.90
2018-12-31T20:09:48.228Z,5.00
2018-12-31T20:12:18.306Z,5.00
2018-12-31T20:14:47.004Z,5.00
2018-12-31T20:17:15.418Z,4.90
2018-12-31T20:19:43.826Z,5.00
2018-12-31T20:22:13.284Z,5.00
2018-12-31T20:24:46.578Z,4.90
2018-12-31T20:27:17.006Z,5.00
2018-12-31T20:29:51.162Z,4.90
2018-12-31T20:32:19.645Z,4.90
2018-12-31T20:34:48.233Z,5.00
2018-12-31T20:37:21.945Z,5.00
2018-12-31T20:39:51.789Z,5.00
2018-12-31T20:42:24.841Z,5.00
2018-12-31T20:45:01.990Z,5.00
2018-12-31T20:47:33.682Z,5.00
2018-12-31T20:50:06.757Z,5.00
2018-12-31T20:52:39.609Z,5.00
2018-12-31T20:55:12.348Z,5.00
2018-12-31T20:57:45.354Z,4.90
2018-12-31T21:00:22.297Z,4.90
2018-12-31T21:02:52.378Z,4.90
2018-12-31T21:05:23.650Z,4.90
2018-12-31T21:07:52.448Z,4.90
2018-12-31T21:10:22.142Z,4.90
2018-12-31T21:12:55.342Z,4.90
2018-12-31T21:15:25.407Z,4.90
2018-12-31T21:17:56.546Z,4.90
2018-12-31T21:20:28.112Z,4.90
2018-12-31T21:23:02.782Z,4.90
2018-12-31T21:25:35.554Z,4.90
2018-12-31T21:28:11.599Z,4.90
2018-12-31T21:30:42.540Z,4.90
2018-12-31T21:33:37.123Z,4.90
2018-12-31T21:35:48.073Z,4.90
2018-12-31T21:38:32.697Z,4.90
2018-12-31T21:41:06.953Z,4.90
2018-12-31T21:43:38.360Z,4.90
2018-12-31T21:46:11.506Z,4.90
2018-12-31T21:48:41.549Z,4.90
2018-12-31T21:51:12.849Z,4.90
2018-12-31T21:53:41.261Z,4.90
2018-12-31T21:56:12.761Z,4.90
2018-12-31T21:58:42.778Z,4.90
2018-12-31T22:01:11.197Z,4.90
2018-12-31T22:03:42.299Z,4.90
2018-12-31T22:06:13.970Z,4.90
2018-12-31T22:08:45.101Z,4.90
2018-12-31T22:11:16.513Z,4.90
2018-12-31T22:13:51.149Z,4.90
2018-12-31T22:16:26.594Z,4.90
2018-12-31T22:18:55.038Z,4.90
2018-12-31T22:21:23.453Z,4.90
2018-12-31T22:23:53.537Z,5.00
2018-12-31T22:26:24.825Z,5.00
2018-12-31T22:28:53.246Z,5.00
2018-12-31T22:31:24.392Z,5.00
2018-12-31T22:33:52.793Z,5.00
2018-12-31T22:36:23.881Z,5.00
2018-12-31T22:38:55.764Z,4.90
2018-12-31T22:41:24.201Z,5.00
2018-12-31T22:44:00.591Z,5.00
2018-12-31T22:46:33.333Z,5.00
2018-12-31T22:49:07.458Z,5.00
2018-12-31T22:51:38.653Z,5.00
2018-12-31T22:54:22.707Z,5.00
2018-12-31T22:56:50.682Z,5.00
2018-12-31T22:59:20.766Z,5.00
2018-12-31T23:01:50.818Z,5.00
2018-12-31T23:04:21.905Z,5.00
2018-12-31T23:06:57.309Z,5.00
2018-12-31T23:09:29.006Z,5.00
2018-12-31T23:12:00.289Z,5.00
2018-12-31T23:14:29.466Z,5.00
2018-12-31T23:16:58.155Z,5.00
2018-12-31T23:19:32.096Z,5.00
2018-12-31T23:22:02.151Z,5.00
2018-12-31T23:24:33.310Z,5.00
2018-12-31T23:27:19.000Z,5.00
2018-12-31T23:29:49.817Z,5.00
2018-12-31T23:32:18.238Z,5.00
2018-12-31T23:34:47.547Z,5.00
2018-12-31T23:37:17.638Z,5.00
2018-12-31T23:39:54.225Z,5.00
2018-12-31T23:42:27.210Z,5.00
2018-12-31T23:44:57.590Z,5.00
2018-12-31T23:47:27.639Z,5.00
2018-12-31T23:49:58.988Z,5.00
2018-12-31T23:52:31.218Z,5.00
2018-12-31T23:55:02.333Z,5.00
2018-12-31T23:57:32.249Z,5.00
